createdAt,value
2022-08-03T00:00:17.905Z,78.45
2022-08-03T00:01:18.344Z,78.55
2022-08-03T00:02:18.102Z,78.66
2022-08-03T00:03:17.935Z,78.75
2022-08-03T00:04:17.845Z,78.85
2022-08-03T00:05:17.844Z,78.75
2022-08-03T00:06:17.825Z,78.75
2022-08-03T00:07:17.816Z,78.66
2022-08-03T00:08:17.823Z,78.66
2022-08-03T00:09:17.796Z,78.66
2022-08-03T00:10:17.786Z,78.45
2022-08-03T00:11:17.767Z,78.66
2022-08-03T00:12:18.387Z,78.35
2022-08-03T00:13:17.773Z,78.25
2022-08-03T00:14:17.748Z,78.35
2022-08-03T00:15:17.721Z,78.35
2022-08-03T00:16:17.868Z,78.35
2022-08-03T00:17:17.698Z,78.55
2022-08-03T00:18:17.687Z,78.55
2022-08-03T00:19:17.698Z,78.85
2022-08-03T00:20:17.740Z,78.85
2022-08-03T00:21:17.663Z,78.85
2022-08-03T00:22:17.953Z,78.75
2022-08-03T00:23:17.642Z,78.96
2022-08-03T00:24:17.631Z,78.66
2022-08-03T00:25:17.602Z,78.75
2022-08-03T00:26:17.599Z,78.66
2022-08-03T00:27:17.573Z,78.79
2022-08-03T00:28:17.579Z,78.79
2022-08-03T00:29:17.585Z,79.09
2022-08-03T00:30:17.662Z,78.89
2022-08-03T00:31:24.245Z,78.99
2022-08-03T00:32:19.319Z,78.99
2022-08-03T00:33:17.513Z,79.19
2022-08-03T00:34:17.521Z,79.19
2022-08-03T00:35:36.542Z,79.39
2022-08-03T00:36:18.485Z,79.60
2022-08-03T00:37:17.461Z,79.60
2022-08-03T00:38:17.463Z,79.60
2022-08-03T00:39:17.482Z,79.69
2022-08-03T00:40:17.425Z,79.60
2022-08-03T00:41:17.415Z,79.49
2022-08-03T00:42:17.736Z,79.33
2022-08-03T00:43:17.383Z,79.53
2022-08-03T00:44:17.387Z,79.63
2022-08-03T00:45:17.374Z,79.63
2022-08-03T00:46:21.270Z,79.53
2022-08-03T00:47:17.344Z,79.43
2022-08-03T00:48:29.708Z,79.43
2022-08-03T00:49:18.355Z,79.33
2022-08-03T00:50:17.307Z,79.33
2022-08-03T00:51:17.577Z,79.43
2022-08-03T00:52:17.296Z,79.23
2022-08-03T00:53:17.279Z,79.33
2022-08-03T00:54:17.268Z,79.43
2022-08-03T00:55:17.278Z,79.33
2022-08-03T00:56:17.227Z,79.43
2022-08-03T00:57:17.228Z,79.43
2022-08-03T00:58:17.228Z,79.43
2022-08-03T00:59:17.216Z,79.53
2022-08-03T01:00:17.700Z,79.63
2022-08-03T01:01:17.265Z,79.83
2022-08-03T01:02:17.477Z,79.83
2022-08-03T01:03:17.159Z,79.93
2022-08-03T01:04:17.161Z,80.17
2022-08-03T01:05:17.419Z,80.17
2022-08-03T01:06:17.119Z,80.37
2022-08-03T01:07:17.122Z,80.37
2022-08-03T01:08:17.111Z,80.47
2022-08-03T01:09:17.092Z,80.57
2022-08-03T01:10:17.082Z,80.37
2022-08-03T01:11:17.082Z,80.47
2022-08-03T01:12:17.486Z,80.47
2022-08-03T01:13:59.215Z,80.37
2022-08-03T01:14:20.002Z,80.37
2022-08-03T01:15:17.030Z,80.37
2022-08-03T01:16:17.003Z,80.37
2022-08-03T01:17:17.003Z,80.17
2022-08-03T01:18:16.997Z,79.97
2022-08-03T01:19:17.083Z,79.87
2022-08-03T01:20:16.974Z,79.87
2022-08-03T01:21:17.448Z,79.87
2022-08-03T01:22:17.253Z,79.87
2022-08-03T01:23:16.928Z,79.97
2022-08-03T01:24:16.934Z,79.97
2022-08-03T01:25:16.907Z,79.87
2022-08-03T01:26:16.895Z,79.77
2022-08-03T01:27:17.146Z,79.87
2022-08-03T01:28:16.881Z,79.97
2022-08-03T01:29:16.876Z,79.77
2022-08-03T01:30:16.872Z,79.77
2022-08-03T01:31:16.847Z,79.87
2022-08-03T01:32:59.812Z,79.77
2022-08-03T01:33:17.821Z,79.67
2022-08-03T01:34:16.849Z,79.57
2022-08-03T01:35:16.797Z,79.67
2022-08-03T01:36:17.070Z,79.77
2022-08-03T01:37:16.787Z,79.87
2022-08-03T01:38:16.767Z,79.97
2022-08-03T01:39:16.757Z,80.07
2022-08-03T01:40:16.757Z,80.17
2022-08-03T01:41:16.726Z,80.27
2022-08-03T01:42:17.090Z,80.47
2022-08-03T01:44:27.043Z,80.51
2022-08-03T01:44:27.548Z,80.71
2022-08-03T01:45:17.680Z,80.91
2022-08-03T01:46:16.682Z,80.71
2022-08-03T01:47:16.661Z,80.71
2022-08-03T01:48:16.882Z,81.01
2022-08-03T01:49:16.704Z,81.12
2022-08-03T01:50:16.908Z,81.21
2022-08-03T01:51:16.624Z,81.32
2022-08-03T01:52:16.820Z,81.21
2022-08-03T01:53:16.623Z,81.32
2022-08-03T01:54:16.591Z,81.62
2022-08-03T01:55:16.572Z,81.76
2022-08-03T01:56:16.555Z,81.76
2022-08-03T01:57:16.555Z,81.56
2022-08-03T01:58:16.541Z,81.46
2022-08-03T01:59:16.563Z,81.46
2022-08-03T02:00:16.525Z,81.56
2022-08-03T02:01:16.588Z,81.35
2022-08-03T02:02:33.249Z,81.46
2022-08-03T02:03:17.495Z,81.46
2022-08-03T02:04:16.473Z,81.56
2022-08-03T02:05:16.467Z,81.46
2022-08-03T02:07:00.696Z,81.46
2022-08-03T02:07:17.434Z,81.65
2022-08-03T02:08:16.423Z,81.65
2022-08-03T02:09:16.705Z,81.65
2022-08-03T02:10:16.398Z,81.76
2022-08-03T02:11:17.387Z,81.76
2022-08-03T02:12:16.602Z,81.65
2022-08-03T02:13:16.653Z,81.65
2022-08-03T02:14:16.363Z,81.65
2022-08-03T02:15:16.359Z,81.76
2022-08-03T02:16:16.605Z,81.85
2022-08-03T02:17:16.327Z,81.76
2022-08-03T02:18:16.361Z,81.65
2022-08-03T02:19:16.336Z,81.46
2022-08-03T02:20:16.295Z,81.46
2022-08-03T02:21:55.467Z,81.46
2022-08-03T02:22:17.551Z,81.46
2022-08-03T02:23:16.248Z,81.26
2022-08-03T02:24:16.278Z,81.26
2022-08-03T02:25:16.237Z,81.35
2022-08-03T02:26:16.219Z,81.26
2022-08-03T02:27:16.200Z,81.35
2022-08-03T02:28:16.218Z,81.46
2022-08-03T02:29:16.211Z,81.26
2022-08-03T02:30:16.181Z,81.35
2022-08-03T02:31:16.170Z,81.56
2022-08-03T02:32:16.407Z,81.26
2022-08-03T02:33:16.141Z,81.35
2022-08-03T02:34:16.164Z,81.46
2022-08-03T02:35:16.122Z,81.76
2022-08-03T02:36:16.119Z,81.90
2022-08-03T02:37:16.093Z,81.49
2022-08-03T02:38:16.099Z,81.70
2022-08-03T02:39:16.085Z,81.79
2022-08-03T02:40:16.579Z,81.70
2022-08-03T02:41:16.061Z,81.99
2022-08-03T02:42:16.212Z,81.99
2022-08-03T02:43:16.034Z,82.10
2022-08-03T02:44:16.052Z,81.99
2022-08-03T02:45:16.015Z,81.99
2022-08-03T02:46:16.008Z,81.90
2022-08-03T02:47:15.984Z,81.79
2022-08-03T02:48:15.989Z,81.99
2022-08-03T02:49:49.669Z,82.30
2022-08-03T02:50:17.018Z,82.40
2022-08-03T02:51:15.954Z,82.50
2022-08-03T02:52:17.088Z,82.70
2022-08-03T02:53:15.926Z,82.84
2022-08-03T02:54:15.925Z,82.94
2022-08-03T02:55:15.906Z,83.04
2022-08-03T02:56:15.875Z,83.25
2022-08-03T02:57:15.898Z,83.25
2022-08-03T02:58:15.858Z,83.25
2022-08-03T02:59:15.854Z,83.34
2022-08-03T03:00:27.597Z,83.34
2022-08-03T03:01:17.146Z,83.54
2022-08-03T03:02:16.101Z,83.45
2022-08-03T03:03:15.831Z,83.45
2022-08-03T03:04:15.807Z,83.45
2022-08-03T03:05:54.836Z,83.45
2022-08-03T03:06:17.140Z,83.45
2022-08-03T03:07:15.779Z,83.54
2022-08-03T03:08:18.022Z,83.54
2022-08-03T03:09:16.710Z,83.75
2022-08-03T03:10:15.754Z,83.75
2022-08-03T03:11:15.730Z,83.84
2022-08-03T03:12:15.832Z,83.84
2022-08-03T03:13:15.712Z,83.95
2022-08-03T03:14:15.679Z,84.05
2022-08-03T03:15:16.693Z,83.95
2022-08-03T03:16:15.944Z,83.95
2022-08-03T03:17:15.659Z,84.05
2022-08-03T03:18:18.962Z,84.05
2022-08-03T03:19:16.654Z,84.05
2022-08-03T03:20:15.791Z,84.05
2022-08-03T03:21:16.603Z,84.15
2022-08-03T03:22:15.913Z,84.15
2022-08-03T03:23:15.581Z,84.25
2022-08-03T03:24:15.573Z,84.35
2022-08-03T03:25:15.576Z,84.35
2022-08-03T03:26:15.581Z,84.45
2022-08-03T03:27:16.567Z,84.55
2022-08-03T03:28:15.537Z,84.55
2022-08-03T03:29:15.537Z,84.55
2022-08-03T03:30:15.535Z,84.65
2022-08-03T03:31:15.484Z,84.65
2022-08-03T03:32:15.729Z,84.75
2022-08-03T03:33:15.474Z,84.95
2022-08-03T03:34:15.454Z,84.89
2022-08-03T03:35:15.469Z,85.00
2022-08-03T03:36:15.444Z,85.00
2022-08-03T03:37:15.423Z,85.00
2022-08-03T03:38:15.415Z,85.00
2022-08-03T03:39:16.196Z,85.00
2022-08-03T03:40:15.414Z,85.20
2022-08-03T03:41:19.547Z,85.10
2022-08-03T03:42:15.780Z,85.20
2022-08-03T03:43:15.366Z,85.20
2022-08-03T03:44:15.348Z,85.20
2022-08-03T03:45:15.619Z,85.20
2022-08-03T03:46:15.607Z,85.30
2022-08-03T03:47:15.305Z,85.40
2022-08-03T03:48:15.331Z,85.40
2022-08-03T03:49:15.386Z,85.40
2022-08-03T03:50:19.707Z,85.50
2022-08-03T03:51:15.266Z,85.50
2022-08-03T03:52:16.558Z,85.60
2022-08-03T03:53:15.885Z,85.50
2022-08-03T03:54:15.241Z,85.60
2022-08-03T03:55:15.249Z,85.60
2022-08-03T03:56:15.318Z,85.70
2022-08-03T03:57:15.372Z,85.70
2022-08-03T03:58:16.162Z,85.80
2022-08-03T03:59:15.449Z,85.80
2022-08-03T04:00:15.180Z,85.90
2022-08-03T04:01:15.199Z,85.90
2022-08-03T04:02:16.470Z,85.90
2022-08-03T04:03:15.121Z,86.00
2022-08-03T04:04:15.121Z,86.10
2022-08-03T04:05:15.133Z,86.21
2022-08-03T04:06:15.107Z,86.21
2022-08-03T04:07:15.086Z,86.21
2022-08-03T04:08:15.083Z,86.21
2022-08-03T04:09:15.313Z,86.30
2022-08-03T04:10:15.133Z,86.41
2022-08-03T04:11:15.255Z,86.41
2022-08-03T04:12:16.219Z,86.41
2022-08-03T04:13:15.012Z,86.51
2022-08-03T04:14:15.020Z,86.41
2022-08-03T04:15:15.278Z,86.41
2022-08-03T04:16:14.988Z,86.30
2022-08-03T04:17:15.903Z,86.41
2022-08-03T04:18:14.974Z,86.30
2022-08-03T04:19:17.489Z,86.30
2022-08-03T04:20:15.953Z,86.30
2022-08-03T04:21:14.925Z,86.30
2022-08-03T04:22:15.078Z,86.30
2022-08-03T04:23:15.781Z,86.21
2022-08-03T04:24:14.896Z,86.21
2022-08-03T04:25:14.912Z,86.10
2022-08-03T04:26:14.874Z,86.10
2022-08-03T04:27:14.875Z,86.10
2022-08-03T04:28:31.185Z,86.10
2022-08-03T04:29:15.835Z,85.96
2022-08-03T04:30:14.836Z,85.86
2022-08-03T04:31:15.621Z,85.86
2022-08-03T04:32:15.717Z,85.76
2022-08-03T04:33:15.216Z,85.66
2022-08-03T04:34:15.827Z,85.66
2022-08-03T04:35:14.789Z,85.46
2022-08-03T04:36:14.747Z,85.25
2022-08-03T04:37:14.909Z,85.46
2022-08-03T04:38:14.737Z,85.25
2022-08-03T04:39:14.738Z,85.16
2022-08-03T04:40:14.741Z,85.25
2022-08-03T04:41:14.714Z,84.95
2022-08-03T04:42:15.592Z,84.75
2022-08-03T04:43:14.689Z,84.75
2022-08-03T04:44:14.958Z,84.85
2022-08-03T04:45:15.071Z,84.75
2022-08-03T04:46:14.653Z,84.85
2022-08-03T04:47:14.639Z,84.75
2022-08-03T04:48:14.619Z,84.85
2022-08-03T04:49:14.690Z,84.45
2022-08-03T04:50:19.440Z,84.25
2022-08-03T04:51:16.061Z,84.25
2022-08-03T04:52:14.800Z,84.35
2022-08-03T04:53:14.591Z,84.15
2022-08-03T04:54:14.563Z,83.95
2022-08-03T04:55:14.533Z,83.84
2022-08-03T04:56:15.293Z,83.84
2022-08-03T04:57:22.519Z,83.91
2022-08-03T04:58:15.516Z,83.91
2022-08-03T04:59:15.514Z,83.71
2022-08-03T05:00:14.501Z,83.61
2022-08-03T05:01:15.136Z,83.61
2022-08-03T05:02:14.707Z,83.51
2022-08-03T05:03:20.468Z,83.31
2022-08-03T05:04:15.451Z,83.31
2022-08-03T05:05:14.446Z,83.20
2022-08-03T05:06:16.202Z,83.11
2022-08-03T05:07:14.416Z,83.00
2022-08-03T05:08:14.668Z,83.11
2022-08-03T05:09:14.408Z,83.20
2022-08-03T05:10:16.250Z,83.00
2022-08-03T05:11:14.358Z,83.06
2022-08-03T05:12:18.447Z,82.97
2022-08-03T05:13:15.209Z,82.86
2022-08-03T05:14:14.681Z,82.76
2022-08-03T05:15:15.527Z,82.66
2022-08-03T05:16:15.429Z,82.56
2022-08-03T05:17:14.288Z,82.66
2022-08-03T05:18:15.253Z,82.66
2022-08-03T05:19:14.279Z,82.72
2022-08-03T05:20:16.561Z,82.82
2022-08-03T05:21:15.469Z,82.72
2022-08-03T05:22:15.500Z,82.72
2022-08-03T05:23:18.200Z,82.62
2022-08-03T05:24:14.492Z,82.62
2022-08-03T05:25:17.752Z,82.72
2022-08-03T05:26:15.510Z,82.42
2022-08-03T05:27:15.420Z,82.28
2022-08-03T05:28:15.071Z,81.98
2022-08-03T05:29:14.970Z,82.08
2022-08-03T05:30:26.789Z,82.18
2022-08-03T05:31:15.174Z,81.78
2022-08-03T05:32:14.121Z,81.68
2022-08-03T05:33:15.087Z,81.58
2022-08-03T05:34:14.953Z,81.64
2022-08-03T05:36:01.745Z,81.34
2022-08-03T05:36:15.091Z,81.24
2022-08-03T05:37:14.971Z,81.24
2022-08-03T05:38:14.884Z,81.14
2022-08-03T05:39:15.812Z,80.94
2022-08-03T05:40:14.313Z,80.74
2022-08-03T05:41:23.567Z,80.54
2022-08-03T05:42:15.172Z,80.40
2022-08-03T05:43:14.405Z,80.50
2022-08-03T05:44:15.025Z,80.30
2022-08-03T05:45:13.987Z,80.40
2022-08-03T05:46:13.982Z,80.40
2022-08-03T05:47:15.055Z,80.40
2022-08-03T05:48:13.954Z,80.06
2022-08-03T05:49:14.650Z,79.86
2022-08-03T05:50:14.767Z,79.66
2022-08-03T05:51:13.936Z,79.55
2022-08-03T05:52:16.990Z,79.46
2022-08-03T05:53:13.919Z,79.66
2022-08-03T05:54:14.399Z,79.55
2022-08-03T05:55:13.880Z,79.25
2022-08-03T05:56:16.378Z,79.02
2022-08-03T05:57:14.357Z,79.02
2022-08-03T05:58:13.854Z,78.61
2022-08-03T05:59:37.168Z,79.02
2022-08-03T06:00:15.078Z,78.92
2022-08-03T06:01:13.871Z,78.61
2022-08-03T06:02:14.304Z,78.22
2022-08-03T06:03:14.030Z,78.11
2022-08-03T06:04:13.780Z,77.87
2022-08-03T06:05:14.781Z,77.98
2022-08-03T06:06:14.479Z,77.87
2022-08-03T06:07:13.745Z,77.48
2022-08-03T06:08:15.432Z,77.17
2022-08-03T06:09:14.363Z,76.98
2022-08-03T06:10:36.785Z,76.74
2022-08-03T06:11:15.001Z,76.43
2022-08-03T06:12:14.445Z,76.54
2022-08-03T06:13:14.322Z,76.24
2022-08-03T06:14:13.655Z,76.04
2022-08-03T06:15:13.672Z,75.93
2022-08-03T06:16:13.660Z,75.80
2022-08-03T06:17:13.993Z,75.80
2022-08-03T06:18:14.698Z,75.70
2022-08-03T06:19:13.604Z,75.30
2022-08-03T06:20:14.483Z,75.30
2022-08-03T06:21:16.161Z,75.20
2022-08-03T06:22:14.143Z,75.16
2022-08-03T06:23:17.673Z,74.76
2022-08-03T06:24:13.986Z,74.66
2022-08-03T06:25:14.579Z,74.46
2022-08-03T06:26:14.427Z,74.66
2022-08-03T06:27:14.282Z,74.16
2022-08-03T06:28:42.477Z,74.13
2022-08-03T06:29:14.484Z,74.03
2022-08-03T06:30:16.025Z,74.03
2022-08-03T06:31:14.476Z,73.33
2022-08-03T06:32:13.445Z,73.22
2022-08-03T06:33:13.427Z,73.22
2022-08-03T06:34:33.975Z,73.33
2022-08-03T06:35:14.427Z,72.79
2022-08-03T06:36:13.589Z,72.89
2022-08-03T06:37:13.399Z,72.49
2022-08-03T06:38:13.488Z,72.29
2022-08-03T06:39:13.391Z,72.19
2022-08-03T06:40:14.066Z,71.96
2022-08-03T06:41:13.423Z,71.76
2022-08-03T06:42:13.834Z,71.66
2022-08-03T06:43:14.120Z,71.66
2022-08-03T06:44:13.712Z,71.36
2022-08-03T06:45:14.181Z,70.96
2022-08-03T06:46:14.002Z,70.83
2022-08-03T06:47:13.342Z,71.03
2022-08-03T06:48:13.462Z,70.72
2022-08-03T06:49:13.527Z,70.92
2022-08-03T06:50:17.258Z,71.03
2022-08-03T06:51:14.112Z,70.83
2022-08-03T06:52:13.348Z,70.69
2022-08-03T06:53:19.727Z,70.39
2022-08-03T06:54:14.192Z,70.19
2022-08-03T06:55:13.677Z,70.09
2022-08-03T06:56:13.173Z,69.69
2022-08-03T06:57:13.196Z,69.46
2022-08-03T06:58:13.828Z,69.26
2022-08-03T07:00:09.499Z,69.16
2022-08-03T07:00:14.284Z,69.66
2022-08-03T07:01:13.354Z,68.96
2022-08-03T07:02:13.728Z,69.06
2022-08-03T07:03:14.105Z,69.06
2022-08-03T07:04:13.078Z,68.86
2022-08-03T07:05:13.177Z,68.43
2022-08-03T07:06:13.549Z,68.43
2022-08-03T07:07:13.036Z,68.43
2022-08-03T07:08:13.148Z,68.23
2022-08-03T07:09:13.950Z,68.13
2022-08-03T07:10:13.017Z,68.03
2022-08-03T07:11:13.288Z,68.13
2022-08-03T07:12:14.175Z,67.90
2022-08-03T07:13:12.968Z,67.80
2022-08-03T07:14:13.989Z,67.90
2022-08-03T07:15:12.950Z,67.80
2022-08-03T07:16:13.948Z,67.70
2022-08-03T07:17:13.701Z,67.60
2022-08-03T07:18:13.722Z,67.40
2022-08-03T07:19:12.910Z,67.50
2022-08-03T07:20:13.720Z,67.27
2022-08-03T07:21:13.449Z,67.07
2022-08-03T07:22:13.738Z,66.87
2022-08-03T07:23:19.117Z,66.87
2022-08-03T07:24:15.082Z,66.77
2022-08-03T07:25:13.983Z,66.57
2022-08-03T07:26:13.487Z,66.47
2022-08-03T07:27:13.251Z,66.57
2022-08-03T07:28:13.265Z,66.34
2022-08-03T07:29:15.064Z,66.14
2022-08-03T07:30:12.776Z,65.84
2022-08-03T07:31:13.494Z,65.74
2022-08-03T07:32:14.032Z,66.04
2022-08-03T07:33:13.733Z,66.24
2022-08-03T07:34:13.623Z,66.04
2022-08-03T07:35:24.814Z,66.04
2022-08-03T07:36:14.964Z,66.01
2022-08-03T07:37:13.024Z,65.31
2022-08-03T07:38:13.336Z,65.01
2022-08-03T07:39:17.656Z,64.88
2022-08-03T07:40:13.135Z,64.69
2022-08-03T07:41:12.735Z,64.58
2022-08-03T07:42:13.809Z,64.69
2022-08-03T07:43:13.317Z,64.58
2022-08-03T07:44:12.663Z,64.28
2022-08-03T07:45:13.991Z,64.25
2022-08-03T07:46:12.806Z,64.45
2022-08-03T07:47:22.400Z,64.55
2022-08-03T07:48:14.166Z,64.15
2022-08-03T07:49:13.103Z,63.95
2022-08-03T07:50:12.858Z,63.76
2022-08-03T07:51:13.548Z,63.82
2022-08-03T07:52:13.290Z,63.53
2022-08-03T07:53:12.548Z,63.33
2022-08-03T07:54:13.259Z,63.43
2022-08-03T07:55:12.534Z,63.30
2022-08-03T07:56:13.152Z,63.20
2022-08-03T07:57:13.050Z,63.10
2022-08-03T07:58:12.979Z,63.10
2022-08-03T07:59:13.114Z,63.30
2022-08-03T08:00:12.782Z,63.30
2022-08-03T08:01:15.009Z,62.97
2022-08-03T08:02:12.563Z,62.97
2022-08-03T08:03:12.991Z,62.87
2022-08-03T08:04:12.983Z,62.77
2022-08-03T08:05:12.623Z,62.67
2022-08-03T08:06:12.707Z,62.45
2022-08-03T08:07:13.582Z,62.45
2022-08-03T08:08:12.370Z,62.24
2022-08-03T08:09:12.423Z,62.24
2022-08-03T08:10:12.333Z,62.15
2022-08-03T08:11:12.493Z,61.82
2022-08-03T08:12:15.320Z,61.12
2022-08-03T08:13:13.074Z,60.93
2022-08-03T08:14:12.300Z,60.93
2022-08-03T08:15:13.344Z,60.99
2022-08-03T08:16:12.715Z,60.99
2022-08-03T08:17:13.136Z,60.80
2022-08-03T08:18:12.758Z,60.80
2022-08-03T08:19:13.458Z,60.89
2022-08-03T08:20:13.440Z,60.50
2022-08-03T08:21:13.105Z,60.70
2022-08-03T08:22:12.638Z,60.80
2022-08-03T08:23:37.758Z,60.67
2022-08-03T08:24:18.208Z,60.07
2022-08-03T08:25:17.109Z,60.07
2022-08-03T08:26:12.337Z,59.88
2022-08-03T08:27:13.207Z,59.55
2022-08-03T08:28:31.371Z,59.55
2022-08-03T08:29:17.826Z,59.45
2022-08-03T08:30:16.006Z,59.05
2022-08-03T08:31:13.120Z,58.92
2022-08-03T08:32:13.140Z,58.92
2022-08-03T08:33:22.164Z,58.53
2022-08-03T08:34:13.605Z,58.33
2022-08-03T08:35:12.976Z,58.33
2022-08-03T08:36:15.173Z,58.43
2022-08-03T08:37:12.038Z,58.30
2022-08-03T08:38:13.199Z,58.30
2022-08-03T08:39:12.851Z,58.01
2022-08-03T08:40:12.201Z,57.48
2022-08-03T08:41:12.921Z,57.48
2022-08-03T08:42:12.589Z,57.18
2022-08-03T08:43:12.213Z,56.79
2022-08-03T08:44:12.383Z,56.89
2022-08-03T08:45:13.033Z,56.67
2022-08-03T08:46:11.945Z,57.06
2022-08-03T08:47:16.043Z,56.57
2022-08-03T08:48:12.763Z,56.46
2022-08-03T08:49:12.470Z,56.27
2022-08-03T08:50:27.109Z,55.87
2022-08-03T08:51:13.507Z,55.87
2022-08-03T08:52:22.229Z,55.68
2022-08-03T08:53:17.583Z,55.87
2022-08-03T08:54:13.726Z,55.75
2022-08-03T08:55:11.909Z,55.55
2022-08-03T08:56:16.191Z,54.76
2022-08-03T08:57:33.524Z,54.76
2022-08-03T08:58:14.540Z,54.66
2022-08-03T08:59:13.513Z,54.86
2022-08-03T09:00:15.815Z,54.76
2022-08-03T09:01:12.592Z,54.93
2022-08-03T09:02:16.123Z,54.73
2022-08-03T09:03:12.490Z,54.83
2022-08-03T09:04:13.299Z,54.73
2022-08-03T09:05:12.262Z,54.63
2022-08-03T09:06:12.604Z,54.44
2022-08-03T09:07:20.284Z,54.11
2022-08-03T09:08:12.210Z,54.02
2022-08-03T09:09:11.684Z,53.22
2022-08-03T09:10:13.878Z,53.33
2022-08-03T09:11:12.035Z,53.33
2022-08-03T09:12:37.442Z,53.52
2022-08-03T09:13:12.626Z,53.42
2022-08-03T09:14:36.808Z,53.00
2022-08-03T09:15:17.239Z,52.91
2022-08-03T09:16:16.570Z,52.91
2022-08-03T09:17:17.540Z,52.78
2022-08-03T09:18:16.893Z,52.58
2022-08-03T09:19:12.404Z,52.39
2022-08-03T09:20:15.984Z,51.99
2022-08-03T09:21:30.129Z,51.82
2022-08-03T09:22:16.764Z,52.51
2022-08-03T09:23:44.808Z,52.41
2022-08-03T09:24:25.649Z,52.09
2022-08-03T09:25:24.380Z,51.79
2022-08-03T09:26:12.678Z,51.69
2022-08-03T09:27:15.745Z,51.00
2022-08-03T09:28:11.613Z,51.00
2022-08-03T09:29:14.741Z,51.20
2022-08-03T09:30:33.140Z,51.20
2022-08-03T09:31:13.298Z,50.90
2022-08-03T09:32:14.980Z,51.00
2022-08-03T09:33:11.459Z,51.20
2022-08-03T09:34:11.648Z,51.40
2022-08-03T09:35:16.074Z,51.50
2022-08-03T09:36:12.308Z,51.47
2022-08-03T09:37:11.639Z,51.47
2022-08-03T09:38:13.461Z,51.18
2022-08-03T09:39:12.559Z,50.68
2022-08-03T09:40:12.136Z,50.76
2022-08-03T09:41:12.032Z,50.85
2022-08-03T09:42:14.900Z,50.54
2022-08-03T09:43:11.323Z,50.04
2022-08-03T09:44:25.157Z,49.95
2022-08-03T09:45:13.162Z,50.16
2022-08-03T09:46:12.062Z,50.36
2022-08-03T09:47:11.464Z,50.56
2022-08-03T09:48:12.196Z,50.46
2022-08-03T09:49:11.724Z,50.66
2022-08-03T09:50:11.554Z,50.14
2022-08-03T09:51:14.347Z,50.14
2022-08-03T09:52:31.737Z,49.87
2022-08-03T09:53:12.162Z,49.97
2022-08-03T09:54:18.868Z,50.26
2022-08-03T09:56:30.471Z,50.44
2022-08-03T09:56:34.516Z,50.24
2022-08-03T09:57:12.825Z,49.75
2022-08-03T09:58:11.202Z,49.82
2022-08-03T09:59:11.980Z,49.43
2022-08-03T10:00:11.518Z,49.43
2022-08-03T10:01:23.960Z,49.33
2022-08-03T10:02:12.396Z,49.04
2022-08-03T10:03:11.516Z,49.35
2022-08-03T10:04:11.552Z,49.45
2022-08-03T10:05:11.411Z,49.65
2022-08-03T10:06:12.391Z,49.65
2022-08-03T10:07:11.826Z,49.13
2022-08-03T10:08:11.676Z,49.13
2022-08-03T10:09:11.479Z,49.04
2022-08-03T10:10:30.689Z,49.04
2022-08-03T10:11:13.086Z,48.83
2022-08-03T10:12:10.930Z,49.04
2022-08-03T10:13:11.502Z,49.04
2022-08-03T10:14:11.651Z,49.04
2022-08-03T10:16:21.520Z,48.83
2022-08-03T10:16:22.448Z,49.23
2022-08-03T10:17:12.161Z,48.64
2022-08-03T10:18:11.016Z,48.74
2022-08-03T10:19:10.922Z,48.71
2022-08-03T10:20:11.780Z,48.82
2022-08-03T10:21:11.634Z,48.32
2022-08-03T10:22:11.784Z,48.61
2022-08-03T10:23:11.584Z,48.91
2022-08-03T10:24:11.652Z,48.30
2022-08-03T10:25:11.774Z,47.71
2022-08-03T10:26:11.005Z,47.88
2022-08-03T10:27:11.095Z,47.49
2022-08-03T10:28:11.115Z,47.19
2022-08-03T10:29:12.837Z,47.39
2022-08-03T10:30:11.813Z,47.39
2022-08-03T10:31:11.207Z,47.19
2022-08-03T10:32:11.005Z,47.09
2022-08-03T10:33:50.927Z,47.00
2022-08-03T10:34:12.215Z,47.19
2022-08-03T10:35:19.126Z,47.00
2022-08-03T10:36:12.289Z,47.09
2022-08-03T10:37:11.734Z,47.39
2022-08-03T10:38:10.678Z,47.29
2022-08-03T10:39:16.309Z,47.39
2022-08-03T10:40:16.231Z,47.29
2022-08-03T10:41:12.802Z,47.19
2022-08-03T10:42:14.731Z,47.61
2022-08-03T10:43:10.679Z,47.39
2022-08-03T10:44:10.881Z,47.58
2022-08-03T10:45:10.797Z,46.88
2022-08-03T10:46:11.310Z,46.97
2022-08-03T10:47:11.722Z,46.68
2022-08-03T10:48:10.574Z,46.48
2022-08-03T10:49:10.825Z,46.58
2022-08-03T10:50:10.989Z,46.88
2022-08-03T10:51:11.372Z,46.95
2022-08-03T10:52:30.347Z,46.46
2022-08-03T10:53:11.504Z,46.56
2022-08-03T10:54:11.850Z,46.46
2022-08-03T10:55:11.133Z,46.78
2022-08-03T10:56:10.705Z,46.75
2022-08-03T10:57:14.169Z,46.66
2022-08-03T10:58:11.394Z,46.85
2022-08-03T10:59:10.700Z,46.17
2022-08-03T11:00:10.781Z,46.46
2022-08-03T11:01:10.669Z,46.46
2022-08-03T11:02:10.681Z,46.66
2022-08-03T11:03:10.779Z,46.26
2022-08-03T11:04:14.065Z,46.26
2022-08-03T11:05:12.558Z,46.17
2022-08-03T11:06:10.979Z,46.17
2022-08-03T11:07:10.364Z,45.97
2022-08-03T11:08:11.249Z,45.95
2022-08-03T11:09:10.591Z,45.95
2022-08-03T11:10:11.085Z,45.85
2022-08-03T11:11:10.307Z,45.45
2022-08-03T11:12:10.951Z,45.65
2022-08-03T11:13:10.825Z,45.85
2022-08-03T11:14:11.044Z,45.97
2022-08-03T11:15:10.421Z,45.97
2022-08-03T11:16:18.347Z,46.36
2022-08-03T11:17:14.355Z,46.48
2022-08-03T11:18:11.174Z,46.88
2022-08-03T11:19:10.242Z,47.56
2022-08-03T11:20:10.974Z,46.38
2022-08-03T11:21:11.023Z,46.58
2022-08-03T11:22:10.512Z,46.68
2022-08-03T11:23:11.193Z,46.75
2022-08-03T11:24:12.145Z,46.46
2022-08-03T11:25:53.842Z,46.85
2022-08-03T11:26:15.606Z,46.36
2022-08-03T11:27:12.065Z,46.36
2022-08-03T11:28:10.079Z,46.17
2022-08-03T11:29:10.118Z,46.14
2022-08-03T11:30:10.205Z,45.57
2022-08-03T11:31:18.409Z,45.67
2022-08-03T11:32:11.067Z,46.06
2022-08-03T11:33:10.221Z,47.17
2022-08-03T11:34:14.069Z,47.47
2022-08-03T11:35:10.740Z,47.47
2022-08-03T11:36:10.438Z,47.47
2022-08-03T11:37:11.098Z,47.66
2022-08-03T11:38:11.109Z,47.17
2022-08-03T11:39:10.721Z,46.38
2022-08-03T11:40:15.542Z,46.48
2022-08-03T11:41:12.389Z,45.99
2022-08-03T11:42:10.159Z,46.09
2022-08-03T11:43:10.774Z,45.87
2022-08-03T11:44:10.931Z,45.67
2022-08-03T11:45:10.264Z,45.55
2022-08-03T11:46:10.744Z,45.14
2022-08-03T11:47:09.872Z,45.04
2022-08-03T11:48:10.552Z,44.82
2022-08-03T11:49:11.258Z,44.13
2022-08-03T11:50:10.806Z,44.43
2022-08-03T11:51:10.746Z,44.04
2022-08-03T11:52:10.666Z,43.92
2022-08-03T11:53:09.847Z,43.72
2022-08-03T11:54:10.318Z,43.82
2022-08-03T11:55:10.894Z,44.12
2022-08-03T11:56:12.759Z,43.52
2022-08-03T11:57:10.226Z,43.82
2022-08-03T11:59:16.753Z,43.52
2022-08-03T11:59:20.338Z,44.04
2022-08-03T12:00:12.697Z,44.23
2022-08-03T12:01:14.592Z,44.33
2022-08-03T12:02:10.769Z,44.31
2022-08-03T12:03:11.728Z,43.72
2022-08-03T12:04:10.399Z,43.52
2022-08-03T12:05:10.458Z,43.62
2022-08-03T12:06:09.719Z,43.52
2022-08-03T12:07:10.040Z,43.82
2022-08-03T12:08:09.675Z,43.72
2022-08-03T12:09:10.353Z,43.92
2022-08-03T12:10:10.764Z,43.52
2022-08-03T12:11:09.830Z,43.60
2022-08-03T12:12:09.940Z,43.21
2022-08-03T12:14:30.062Z,42.91
2022-08-03T12:14:50.667Z,42.82
2022-08-03T12:15:12.542Z,43.19
2022-08-03T12:16:09.989Z,43.09
2022-08-03T12:17:10.355Z,42.48
2022-08-03T12:18:11.026Z,42.19
2022-08-03T12:19:10.687Z,41.70
2022-08-03T12:20:10.367Z,41.80
2022-08-03T12:21:10.501Z,41.70
2022-08-03T12:22:10.450Z,42.19
2022-08-03T12:23:13.986Z,42.50
2022-08-03T12:24:13.625Z,42.19
2022-08-03T12:25:09.515Z,43.07
2022-08-03T12:26:13.426Z,42.09
2022-08-03T12:27:09.451Z,42.09
2022-08-03T12:28:31.811Z,42.09
2022-08-03T12:29:10.427Z,42.19
2022-08-03T12:30:09.387Z,42.21
2022-08-03T12:31:11.828Z,42.41
2022-08-03T12:32:10.469Z,42.50
2022-08-03T12:33:14.038Z,42.62
2022-08-03T12:34:10.298Z,42.62
2022-08-03T12:35:09.709Z,42.82
2022-08-03T12:36:10.167Z,42.74
2022-08-03T12:37:22.046Z,43.26
2022-08-03T12:38:10.375Z,43.23
2022-08-03T12:39:11.493Z,43.52
2022-08-03T12:40:10.813Z,43.04
2022-08-03T12:41:13.538Z,43.13
2022-08-03T12:42:09.302Z,43.05
2022-08-03T12:43:09.383Z,43.26
2022-08-03T12:44:09.293Z,43.35
2022-08-03T12:45:09.422Z,43.26
2022-08-03T12:46:09.607Z,42.76
2022-08-03T12:47:09.884Z,43.45
2022-08-03T12:48:09.940Z,43.23
2022-08-03T12:49:09.990Z,43.04
2022-08-03T12:50:09.998Z,42.52
2022-08-03T12:51:10.016Z,42.13
2022-08-03T12:52:09.299Z,42.11